Time;durP1;ratioP1;P1;durP2;ratioP2;P2;SDS_P1;SDS_P2;PMS_P1;PMS_P2;Temp;Humidity;BMP_temperature;BMP_pressure;BME280_temperature;BME280_humidity;BME280_pressure;Samples;Min_cycle;Max_cycle;Signal;HPM_P1;HPM_P2
2021/07/28 00:02:18;;;;;;;12.23;11.00;;;18.30;99.90;;;19.10;100.00;97679.47;5288192;28;20213;-79
2021/07/28 00:04:51;;;;;;;11.77;10.60;;;18.30;99.90;;;19.10;100.00;97673.41;5284708;28;20219;-79
2021/07/28 00:07:24;;;;;;;11.20;10.10;;;18.30;99.90;;;19.10;100.00;97686.38;5289461;28;20219;-79
2021/07/28 00:09:58;;;;;;;12.25;11.13;;;18.20;99.90;;;19.11;100.00;97698.47;5294222;28;20281;-78
2021/07/28 00:12:31;;;;;;;12.18;10.95;;;18.30;99.90;;;19.06;100.00;97689.75;5293618;28;20245;-79
2021/07/28 00:15:07;;;;;;;12.05;10.85;;;18.20;99.90;;;19.08;100.00;97685.47;5294321;28;20195;-79
2021/07/28 00:17:45;;;;;;;11.95;10.75;;;18.20;99.90;;;19.08;100.00;97675.09;5293929;28;20198;-79
2021/07/28 00:20:25;;;;;;;12.68;11.45;;;18.20;99.90;;;19.06;100.00;97672.50;5293976;28;20199;-79
2021/07/28 00:23:15;;;;;;;11.48;10.43;;;18.20;99.90;;;19.06;100.00;97684.59;5293711;27;20306;-79
2021/07/28 00:25:48;;;;;;;11.75;10.65;;;18.20;99.90;;;19.04;100.00;97683.66;5294292;28;20219;-79
2021/07/28 00:28:21;;;;;;;12.50;11.30;;;18.20;99.90;;;19.03;100.00;97689.66;5293285;28;20196;-79
2021/07/28 00:30:54;;;;;;;12.55;11.27;;;18.20;99.90;;;19.05;100.00;97680.22;5293838;27;20187;-79
2021/07/28 00:33:29;;;;;;;12.35;11.15;;;18.20;99.90;;;19.08;100.00;97693.22;5294099;28;20231;-78
2021/07/28 00:36:02;;;;;;;11.82;10.73;;;18.20;99.90;;;19.10;100.00;97700.19;5293981;28;20190;-79
2021/07/28 00:38:35;;;;;;;12.30;11.13;;;18.20;99.90;;;19.07;100.00;97688.91;5292572;28;20195;-79
2021/07/28 00:41:08;;;;;;;12.52;11.32;;;18.20;99.90;;;19.09;100.00;97688.09;5293720;28;20282;-79
2021/07/28 00:43:41;;;;;;;13.27;11.98;;;18.20;99.90;;;19.14;100.00;97701.13;5293627;28;20306;-79
2021/07/28 00:46:14;;;;;;;12.05;10.77;;;18.20;99.90;;;19.14;100.00;97695.94;5293558;28;20246;-80
2021/07/28 00:48:49;;;;;;;13.23;11.90;;;18.30;99.90;;;19.18;100.00;97696.91;5293182;28;20202;-79
2021/07/28 00:51:22;;;;;;;12.60;11.30;;;18.30;99.90;;;19.21;100.00;97699.56;5293289;28;20199;-79
2021/07/28 00:53:55;;;;;;;11.98;10.98;;;18.30;99.90;;;19.23;100.00;97690.06;5292893;28;20221;-79
2021/07/28 00:56:28;;;;;;;13.23;12.13;;;18.30;99.90;;;19.21;100.00;97696.97;5293111;28;20191;-79
2021/07/28 00:59:01;;;;;;;12.82;11.52;;;18.30;99.90;;;19.21;100.00;97697.84;5292695;28;20286;-79
2021/07/28 01:01:37;;;;;;;12.68;11.48;;;18.30;99.90;;;19.20;100.00;97706.47;5293318;28;20201;-79
2021/07/28 01:04:11;;;;;;;12.88;11.70;;;18.30;99.90;;;19.19;100.00;97694.34;5293324;28;20202;-80
2021/07/28 01:06:45;;;;;;;13.48;12.07;;;18.30;99.90;;;19.22;100.00;97698.72;5293763;28;20305;-79
2021/07/28 01:09:18;;;;;;;14.00;12.65;;;18.40;99.90;;;19.22;100.00;97696.97;5293067;28;20199;-79
2021/07/28 01:11:51;;;;;;;12.70;11.50;;;18.40;99.90;;;19.24;100.00;97694.44;5293182;28;20198;-79
2021/07/28 01:14:24;;;;;;;14.27;12.90;;;18.40;99.90;;;19.25;100.00;97696.19;5292651;28;20279;-79
2021/07/28 01:16:58;;;;;;;14.50;13.07;;;18.40;99.90;;;19.23;100.00;97690.06;5292900;28;20195;-78
2021/07/28 01:19:36;;;;;;;13.10;11.82;;;18.50;99.90;;;19.22;100.00;97690.94;5293105;28;20464;-79
2021/07/28 01:22:09;;;;;;;11.77;10.73;;;18.40;99.90;;;19.23;100.00;97695.25;5292909;28;20198;-79
2021/07/28 01:24:43;;;;;;;13.35;11.77;;;18.30;99.90;;;19.20;100.00;97690.91;5280479;28;20210;-79
2021/07/28 01:27:17;;;;;;;13.05;11.73;;;18.30;99.90;;;19.21;100.00;97703.03;5291182;28;20221;-80
2021/07/28 01:29:50;;;;;;;13.32;12.02;;;18.30;99.90;;;19.17;100.00;97701.19;5291348;28;20195;-80
2021/07/28 01:32:24;;;;;;;13.38;12.18;;;18.30;99.90;;;19.08;100.00;97682.88;5291817;28;20229;-80
2021/07/28 01:34:58;;;;;;;14.80;13.18;;;18.30;99.90;;;18.97;100.00;97687.84;5291776;28;20195;-80
2021/07/28 01:37:32;;;;;;;13.65;12.45;;;18.30;99.90;;;19.01;100.00;97702.59;5291755;27;20257;-79
2021/07/28 01:40:08;;;;;;;14.45;13.00;;;18.30;99.90;;;19.03;100.00;97707.81;5291711;28;20194;-80
2021/07/28 01:42:41;;;;;;;14.02;12.73;;;18.30;99.90;;;19.05;100.00;97700.94;5291150;28;20219;-79
2021/07/28 01:45:17;;;;;;;15.38;13.52;;;18.20;99.90;;;19.03;100.00;97689.66;5291353;28;20226;-79
2021/07/28 01:47:50;;;;;;;14.48;13.07;;;18.20;99.90;;;18.92;100.00;97688.59;5291050;28;20670;-79
2021/07/28 01:50:23;;;;;;;15.13;13.68;;;18.20;99.90;;;18.90;100.00;97686.81;5291651;28;20195;-79
2021/07/28 01:53:02;;;;;;;15.50;14.10;;;18.20;99.90;;;18.90;100.00;97702.38;5291600;28;20211;-79
2021/07/28 01:55:37;;;;;;;15.75;14.20;;;18.20;99.90;;;18.92;100.00;97715.38;5291041;28;20199;-79
2021/07/28 01:58:11;;;;;;;14.85;13.35;;;18.20;99.90;;;18.95;100.00;97715.44;5290979;28;20209;-80
2021/07/28 02:00:44;;;;;;;15.18;13.63;;;18.10;99.90;;;18.85;100.00;97706.56;5290791;28;20256;-80
2021/07/28 02:03:17;;;;;;;16.05;14.43;;;18.10;99.90;;;18.84;100.00;97704.81;5289695;28;20278;-78
2021/07/28 02:05:50;;;;;;;16.38;14.73;;;18.10;99.90;;;18.84;100.00;97716.91;5290496;28;20227;-80
2021/07/28 02:08:23;;;;;;;17.63;15.90;;;18.10;99.90;;;18.77;100.00;97713.31;5291934;28;20282;-79
2021/07/28 02:10:59;;;;;;;18.75;16.90;;;18.10;99.90;;;18.75;100.00;97693.41;5269745;28;20195;-79
2021/07/28 02:13:32;;;;;;;19.50;17.45;;;18.10;99.90;;;18.80;100.00;97699.53;5283097;28;20234;-79
2021/07/28 02:16:06;;;;;;;21.20;18.95;;;18.10;99.90;;;18.81;100.00;97703.91;5290949;28;20650;-80
2021/07/28 02:18:39;;;;;;;19.70;17.63;;;18.10;99.90;;;18.76;100.00;97696.00;5290897;28;20225;-80
2021/07/28 02:21:12;;;;;;;20.83;18.35;;;18.00;99.90;;;18.76;100.00;97698.59;5291425;28;20203;-79
2021/07/28 02:23:45;;;;;;;21.85;19.55;;;18.00;99.90;;;18.79;100.00;97703.84;5291246;28;20226;-79
2021/07/28 02:26:19;;;;;;;24.10;21.17;;;18.10;99.90;;;18.86;100.00;97703.16;5290574;28;20219;-80
2021/07/28 02:28:52;;;;;;;21.55;19.27;;;18.10;99.90;;;18.86;100.00;97697.97;5290743;28;20194;-79
2021/07/28 02:31:25;;;;;;;23.88;20.95;;;18.10;99.90;;;18.85;100.00;97698.78;5290777;28;20191;-80
2021/07/28 02:33:59;;;;;;;25.60;20.98;;;18.00;99.90;;;18.86;100.00;97700.56;5289930;28;20236;-80
2021/07/28 02:36:32;;;;;;;24.20;20.38;;;18.10;99.90;;;18.88;100.00;97703.16;5290871;28;20672;-79
2021/07/28 02:39:05;;;;;;;22.10;19.35;;;18.10;99.90;;;18.88;100.00;97706.63;5289488;28;20219;-80
2021/07/28 02:41:39;;;;;;;21.88;19.60;;;18.00;99.90;;;18.84;100.00;97710.00;5291439;28;20187;-80
2021/07/28 02:44:12;;;;;;;21.63;18.90;;;18.00;99.90;;;18.85;100.00;97708.28;5289912;28;20222;-80
2021/07/28 02:46:46;;;;;;;27.35;22.48;;;18.00;99.90;;;18.80;100.00;97708.22;5290638;28;20215;-80
2021/07/28 02:49:19;;;;;;;22.15;19.65;;;18.10;99.90;;;18.82;100.00;97709.09;5289924;28;20402;-80
2021/07/28 02:51:52;;;;;;;21.23;19.08;;;18.00;99.90;;;18.86;100.00;97697.97;5290376;28;20188;-80
2021/07/28 02:54:25;;;;;;;22.92;19.65;;;17.90;99.90;;;18.84;100.00;97697.06;5290209;28;20222;-80
2021/07/28 02:56:59;;;;;;;22.08;19.15;;;18.00;99.90;;;18.85;100.00;97701.38;5290400;28;20206;-80
2021/07/28 02:59:32;;;;;;;21.05;18.88;;;18.00;99.90;;;18.86;100.00;97684.16;5289112;28;20661;-80
2021/07/28 03:02:06;;;;;;;23.73;19.98;;;18.00;99.90;;;18.85;100.00;97691.03;5289847;28;20198;-79
2021/07/28 03:04:39;;;;;;;19.98;17.90;;;18.00;99.90;;;18.78;100.00;97685.69;5290167;28;20233;-80
2021/07/28 03:07:12;;;;;;;19.00;17.08;;;17.90;99.90;;;18.73;100.00;97685.56;5285455;28;20219;-78
2021/07/28 03:09:45;;;;;;;18.55;16.38;;;17.90;99.90;;;18.75;100.00;97685.63;5289339;28;20201;-80
2021/07/28 03:12:19;;;;;;;22.80;20.40;;;17.90;99.90;;;18.74;100.00;97684.72;5289714;28;20294;-79
2021/07/28 03:14:54;;;;;;;20.85;18.73;;;17.90;99.90;;;18.76;100.00;97689.97;5275884;28;20195;-80
2021/07/28 03:17:28;;;;;;;28.67;23.00;;;17.90;99.90;;;18.69;100.00;97684.63;5288700;28;20195;-80
2021/07/28 03:20:01;;;;;;;22.25;19.77;;;17.90;99.90;;;18.68;100.00;97680.28;5290320;28;20290;-79
2021/07/28 03:22:34;;;;;;;23.98;20.40;;;17.80;99.90;;;18.68;100.00;97687.16;5289433;28;20577;-79
2021/07/28 03:25:09;;;;;;;23.15;20.00;;;17.80;99.90;;;18.65;100.00;97695.72;5288685;28;20221;-79
2021/07/28 03:27:43;;;;;;;21.45;19.02;;;17.80;99.90;;;18.65;100.00;97685.38;5289695;28;20219;-80
2021/07/28 03:30:17;;;;;;;26.10;22.75;;;17.80;99.90;;;18.63;100.00;97676.72;5289675;28;20195;-80
2021/07/28 03:32:52;;;;;;;23.25;19.85;;;17.80;99.90;;;18.65;100.00;97684.50;5289033;28;20222;-80
2021/07/28 03:35:25;;;;;;;20.45;18.35;;;17.80;99.90;;;18.65;100.00;97689.69;5289821;28;20191;-80
2021/07/28 03:37:58;;;;;;;22.65;20.02;;;17.80;99.90;;;18.69;100.00;97686.34;5288610;28;20199;-80
2021/07/28 03:40:31;;;;;;;21.92;19.63;;;17.90;99.90;;;18.67;100.00;97688.00;5288972;28;20286;-80
2021/07/28 03:43:06;;;;;;;21.55;18.92;;;17.80;99.90;;;18.64;100.00;97687.94;5288963;28;20215;-79
2021/07/28 03:45:39;;;;;;;20.15;17.98;;;17.80;99.90;;;18.64;100.00;97685.34;5289780;28;20220;-79
2021/07/28 03:48:12;;;;;;;22.33;19.92;;;17.80;99.90;;;18.68;100.00;97681.97;5288871;28;20636;-79
2021/07/28 03:50:45;;;;;;;23.20;19.40;;;17.90;99.90;;;18.69;100.00;97681.16;5289323;28;20187;-79
2021/07/28 03:53:19;;;;;;;22.05;18.50;;;17.90;99.90;;;18.73;100.00;97688.16;5288957;28;20701;-79
2021/07/28 03:55:52;;;;;;;26.38;20.85;;;17.90;99.90;;;18.75;100.00;97694.28;5289310;28;20674;-80
2021/07/28 03:58:26;;;;;;;20.67;18.42;;;17.90;99.90;;;18.77;100.00;97696.88;5288099;28;20184;-79
2021/07/28 04:00:59;;;;;;;20.30;18.10;;;17.90;99.90;;;18.76;100.00;97695.16;5288424;28;20191;-80
2021/07/28 04:03:33;;;;;;;19.38;17.23;;;17.90;99.90;;;18.76;100.00;97695.16;5288804;28;20225;-79
2021/07/28 04:06:06;;;;;;;18.58;16.73;;;17.90;99.90;;;18.79;100.00;97697.78;5289010;28;20199;-79
2021/07/28 04:08:39;;;;;;;19.67;17.58;;;17.80;99.90;;;18.78;100.00;97686.56;5283106;28;20218;-79
2021/07/28 04:11:12;;;;;;;22.40;18.70;;;17.90;99.90;;;18.80;100.00;97690.06;5285467;28;20702;-79
2021/07/28 04:13:46;;;;;;;22.92;20.15;;;17.80;99.90;;;18.82;100.00;97690.97;5290233;28;20211;-79
2021/07/28 04:16:19;;;;;;;23.75;21.15;;;17.90;99.90;;;18.87;100.00;97696.25;5290312;28;20191;-80
2021/07/28 04:18:53;;;;;;;23.48;20.23;;;17.90;99.90;;;18.89;100.00;97690.28;5284171;28;20207;-79
2021/07/28 04:21:26;;;;;;;24.02;19.98;;;17.80;99.90;;;18.86;100.00;97677.25;5290305;28;20706;-79
2021/07/28 04:23:59;;;;;;;22.05;19.80;;;17.90;99.90;;;18.89;100.00;97679.91;5289162;28;20261;-80
2021/07/28 04:26:32;;;;;;;23.95;19.70;;;17.90;99.90;;;18.83;100.00;97684.97;5290719;28;20313;-80
2021/07/28 04:29:06;;;;;;;21.85;18.70;;;17.90;99.90;;;18.84;100.00;97678.94;5290175;28;20195;-80
2021/07/28 04:31:40;;;;;;;21.40;18.95;;;17.90;99.90;;;18.81;100.00;97691.81;5279362;28;20193;-80
2021/07/28 04:34:15;;;;;;;22.83;19.65;;;17.90;99.90;;;18.83;100.00;97694.44;5287182;28;20227;-80
2021/07/28 04:36:49;;;;;;;19.35;17.45;;;17.80;99.90;;;18.82;100.00;97698.72;5290829;28;20195;-81
2021/07/28 04:39:22;;;;;;;19.33;17.27;;;17.90;99.90;;;18.86;100.00;97690.19;5288241;28;20219;-81
2021/07/28 04:41:55;;;;;;;20.75;18.45;;;17.90;99.90;;;18.85;100.00;97678.06;5289277;28;20222;-80
2021/07/28 04:44:29;;;;;;;19.95;17.95;;;17.90;99.90;;;18.86;100.00;97692.78;5285430;28;20226;-80
2021/07/28 04:47:03;;;;;;;19.80;17.85;;;17.90;99.90;;;18.88;100.00;97695.41;5289639;28;20268;-80
2021/07/28 04:49:36;;;;;;;21.23;18.30;;;17.90;99.90;;;18.89;100.00;97699.75;5290606;28;20254;-80
2021/07/28 04:52:11;;;;;;;19.35;17.33;;;17.90;99.90;;;18.86;100.00;97687.63;5296369;28;20191;-82
2021/07/28 04:54:44;;;;;;;20.15;18.00;;;17.80;99.90;;;18.86;100.00;97689.34;5297515;28;20194;-82
2021/07/28 04:57:17;;;;;;;20.10;18.08;;;17.80;99.90;;;18.84;100.00;97697.06;5296699;28;20191;-81
2021/07/28 04:59:51;;;;;;;19.58;17.50;;;17.80;99.90;;;18.87;100.00;97697.13;5297629;28;20230;-82
2021/07/28 05:02:25;;;;;;;20.38;18.27;;;17.80;99.90;;;18.86;100.00;97700.56;5297079;28;20697;-83
2021/07/28 05:04:59;;;;;;;19.23;16.88;;;17.80;99.90;;;18.88;100.00;97708.34;5297723;28;20191;-82
2021/07/28 05:07:32;;;;;;;21.50;19.35;;;17.80;99.90;;;18.96;100.00;97711.13;5297470;28;20225;-82
2021/07/28 05:10:07;;;;;;;20.77;18.67;;;17.90;99.90;;;19.04;100.00;97705.25;5298329;28;20230;-82
2021/07/28 05:12:40;;;;;;;21.30;19.02;;;18.00;99.90;;;19.17;100.00;97675.28;5296692;28;20219;-82
2021/07/28 05:15:14;;;;;;;21.23;18.98;;;18.00;99.90;;;19.22;100.00;97671.06;5299120;28;20612;-82
2021/07/28 05:17:47;;;;;;;19.23;17.27;;;18.10;99.90;;;19.27;100.00;97674.63;5297286;28;20187;-82
2021/07/28 05:20:21;;;;;;;19.90;17.83;;;18.10;99.90;;;19.29;100.00;97685.91;5287234;28;20206;-82
2021/07/28 05:22:54;;;;;;;21.75;19.52;;;18.10;99.90;;;19.27;100.00;97690.19;5297493;28;20219;-83
2021/07/28 05:25:28;;;;;;;20.77;18.60;;;18.10;99.90;;;19.27;100.00;97692.78;5289484;28;20701;-82
2021/07/28 05:28:01;;;;;;;22.60;20.20;;;18.10;99.90;;;19.29;100.00;97691.09;5292854;28;20567;-82
2021/07/28 05:30:36;;;;;;;19.23;17.25;;;18.10;99.90;;;19.31;100.00;97689.38;5298374;28;20282;-82
2021/07/28 05:33:09;;;;;;;19.15;17.25;;;18.10;99.90;;;19.31;100.00;97699.75;5297788;27;20575;-83
2021/07/28 05:35:47;;;;;;;20.08;17.98;;;18.10;99.90;;;19.33;100.00;97698.06;5287262;28;20210;-82
2021/07/28 05:38:20;;;;;;;19.38;17.42;;;18.20;99.90;;;19.36;100.00;97692.94;5275863;28;20250;-82
2021/07/28 05:40:56;;;;;;;21.70;19.45;;;18.20;99.90;;;19.40;100.00;97698.19;5297970;28;20197;-82
2021/07/28 05:43:29;;;;;;;21.42;19.13;;;18.20;99.90;;;19.36;100.00;97698.13;5297072;28;20223;-82
2021/07/28 05:46:04;;;;;;;20.98;18.90;;;18.20;99.90;;;19.40;100.00;97699.09;5294516;28;20288;-82
2021/07/28 05:48:37;;;;;;;21.52;19.42;;;18.30;99.90;;;19.51;100.00;97707.91;5289579;27;20705;-81
2021/07/28 05:51:11;;;;;;;22.30;19.90;;;18.30;99.90;;;19.55;100.00;97690.72;5290099;28;20622;-81
2021/07/28 05:53:44;;;;;;;21.30;19.23;;;18.40;99.90;;;19.57;100.00;97692.50;5297644;28;20246;-82
2021/07/28 05:56:17;;;;;;;21.33;19.13;;;18.40;99.90;;;19.58;100.00;97689.06;5289540;28;20262;-83
2021/07/28 05:58:50;;;;;;;19.55;17.55;;;18.40;99.90;;;19.69;100.00;97698.81;5287688;28;20316;-82
2021/07/28 06:01:24;;;;;;;19.25;17.35;;;18.40;99.90;;;19.77;100.00;97707.56;5288582;28;20262;-82
2021/07/28 06:03:58;;;;;;;18.92;17.08;;;18.40;99.90;;;19.77;100.00;97712.75;5295267;28;20215;-82
2021/07/28 06:06:31;;;;;;;18.92;17.02;;;18.40;99.90;;;19.82;100.00;97712.84;5295069;28;20197;-82
2021/07/28 06:09:04;;;;;;;18.67;16.77;;;18.50;99.90;;;19.84;100.00;97712.03;5293891;28;20218;-81
2021/07/28 06:11:37;;;;;;;19.13;17.17;;;18.50;99.90;;;19.84;100.00;97719.81;5288681;28;20264;-82
2021/07/28 06:14:10;;;;;;;20.77;18.65;;;18.60;99.90;;;19.90;100.00;97726.84;5293410;28;20243;-82
2021/07/28 06:16:44;;;;;;;20.38;18.38;;;18.50;99.90;;;19.88;100.00;97724.22;5290104;28;20203;-81
2021/07/28 06:19:18;;;;;;;20.77;18.65;;;18.50;99.90;;;19.91;99.51;97723.41;5280289;27;20206;-82
2021/07/28 06:21:51;;;;;;;18.55;16.73;;;18.50;99.90;;;19.87;99.85;97724.19;5289205;28;20208;-82
2021/07/28 06:24:25;;;;;;;18.15;16.42;;;18.40;99.90;;;19.84;99.41;97712.03;5291697;28;20219;-82
2021/07/28 06:26:58;;;;;;;18.77;17.08;;;18.50;99.90;;;19.78;100.00;97715.41;5276168;28;20188;-81
2021/07/28 06:29:31;;;;;;;21.20;19.13;;;18.50;99.90;;;19.80;100.00;97715.41;5278931;28;20710;-82
2021/07/28 06:32:25;;;;;;;22.80;20.52;;;18.50;99.90;;;19.85;99.92;97728.47;5282012;28;20226;-82
2021/07/28 06:34:58;;;;;;;21.80;19.52;;;18.40;99.90;;;19.84;99.05;97714.63;5289248;28;20199;-82
2021/07/28 06:37:32;;;;;;;20.25;18.35;;;18.40;99.90;;;19.83;99.00;97712.00;5282570;28;20323;-83
2021/07/28 06:40:07;;;;;;;24.23;21.70;;;18.40;99.90;;;19.71;100.00;97710.06;5290365;28;20242;-81
2021/07/28 06:42:40;;;;;;;20.90;18.75;;;18.40;99.90;;;19.67;100.00;97701.34;5291061;28;20214;-81
2021/07/28 06:45:14;;;;;;;23.00;20.60;;;18.50;99.90;;;19.70;100.00;97709.19;5283741;28;20884;-82
2021/07/28 06:47:48;;;;;;;21.45;19.27;;;18.50;99.90;;;19.81;100.00;97717.19;5292510;28;20227;-82
2021/07/28 06:50:21;;;;;;;24.48;21.98;;;18.60;99.90;;;19.90;100.00;97721.66;5296660;28;20254;-83
2021/07/28 06:52:54;;;;;;;22.20;19.90;;;18.60;99.90;;;19.89;100.00;97719.91;5290605;27;20763;-80
2021/07/28 06:55:28;;;;;;;23.27;20.98;;;18.70;99.90;;;19.95;100.00;97720.03;5278144;28;20192;-82
2021/07/28 06:58:02;;;;;;;24.90;22.30;;;18.70;99.90;;;19.90;100.00;97721.66;5280116;28;20218;-81
2021/07/28 07:00:35;;;;;;;21.77;19.38;;;18.70;99.90;;;19.92;100.00;97714.78;5279509;28;20207;-82
2021/07/28 07:03:10;;;;;;;16.70;15.07;;;18.70;99.90;;;19.90;100.00;97722.53;5281841;28;20237;-81
2021/07/28 07:05:43;;;;;;;20.58;18.48;;;18.70;99.90;;;19.94;100.00;97713.06;5281945;28;20219;-81
2021/07/28 07:08:16;;;;;;;16.20;14.70;;;18.70;99.90;;;19.88;99.19;97716.44;5291144;28;20241;-81
2021/07/28 07:10:50;;;;;;;13.90;12.70;;;18.60;99.90;;;19.87;98.69;97708.63;5289442;28;20195;-81
2021/07/28 07:13:23;;;;;;;16.48;14.77;;;18.60;99.90;;;19.87;99.38;97713.81;5281891;28;20215;-81
2021/07/28 07:15:57;;;;;;;14.60;13.18;;;18.60;99.90;;;20.00;98.66;97710.56;5289497;27;20188;-81
2021/07/28 07:18:32;;;;;;;14.80;13.48;;;18.70;99.90;;;20.09;98.42;97715.94;5274553;28;20586;-81
2021/07/28 07:21:05;;;;;;;15.15;13.85;;;18.80;99.90;;;19.99;98.78;97729.59;5275529;28;20806;-81
2021/07/28 07:23:38;;;;;;;13.15;11.93;;;18.70;99.90;;;20.08;97.02;97732.34;5291121;28;20668;-82
2021/07/28 07:26:11;;;;;;;13.27;12.18;;;18.70;99.90;;;20.13;96.09;97746.28;5283398;28;20282;-81
2021/07/28 07:28:44;;;;;;;13.30;12.18;;;18.80;99.90;;;20.21;95.84;97749.03;5274500;28;20306;-81
2021/07/28 07:31:17;;;;;;;12.43;11.23;;;18.70;99.90;;;20.22;95.52;97746.44;5279026;28;20191;-81
2021/07/28 07:33:52;;;;;;;12.35;11.25;;;18.80;99.90;;;20.31;95.01;97750.03;5281143;28;20222;-81
2021/07/28 07:36:26;;;;;;;11.15;10.25;;;18.80;99.90;;;20.44;93.26;97744.22;5283310;28;20207;-81
2021/07/28 07:38:59;;;;;;;12.38;11.20;;;18.80;99.90;;;20.51;92.40;97759.03;5285072;28;20191;-81
2021/07/28 07:41:32;;;;;;;25.23;13.90;;;18.80;99.90;;;20.47;92.04;97762.44;5294079;28;20207;-81
2021/07/28 07:44:06;;;;;;;15.55;12.35;;;18.80;99.90;;;20.44;91.62;97767.59;5285679;28;20219;-81
2021/07/28 07:46:39;;;;;;;13.07;11.77;;;18.70;99.90;;;20.45;91.05;97764.13;5286427;27;20210;-81
2021/07/28 07:49:14;;;;;;;11.73;10.52;;;18.80;99.90;;;20.39;91.54;97764.03;5285881;28;20215;-81
2021/07/28 07:51:47;;;;;;;12.60;11.38;;;18.80;99.90;;;20.34;92.02;97757.88;5292012;28;20290;-80
2021/07/28 07:54:20;;;;;;;12.88;11.77;;;18.80;99.90;;;20.29;92.34;97762.13;5291841;28;20210;-81
2021/07/28 07:56:53;;;;;;;14.52;13.23;;;18.80;99.90;;;20.33;91.31;97770.00;5271734;28;20196;-80
2021/07/28 07:59:26;;;;;;;12.93;11.82;;;18.70;99.90;;;20.38;91.20;97764.88;5271931;28;20204;-80
2021/07/28 08:01:59;;;;;;;15.25;13.05;;;18.70;99.90;;;20.32;92.34;97776.03;5287187;28;20587;-81
2021/07/28 08:04:34;;;;;;;13.32;12.13;;;18.90;99.90;;;20.35;92.71;97783.00;5288635;28;20733;-80
2021/07/28 08:07:07;;;;;;;12.52;11.32;;;18.90;99.90;;;20.41;92.96;97772.72;5289797;28;20251;-81
2021/07/28 08:09:40;;;;;;;11.32;10.23;;;19.00;99.90;;;20.42;90.58;97769.28;5281662;28;20407;-81
2021/07/28 08:12:13;;;;;;;11.75;10.70;;;18.90;99.90;;;20.49;91.61;97773.72;5286185;28;20200;-81
2021/07/28 08:14:48;;;;;;;11.70;10.60;;;19.00;99.90;;;20.53;91.11;97772.94;5287093;28;20222;-81
2021/07/28 08:17:21;;;;;;;12.02;11.00;;;19.00;99.90;;;20.57;91.48;97774.72;5275673;28;20267;-81
2021/07/28 08:20:00;;;;;;;10.63;9.73;;;19.00;99.90;;;20.68;90.60;97780.97;5278385;28;20729;-81
2021/07/28 08:22:34;;;;;;;10.32;9.48;;;19.10;99.90;;;20.70;90.18;97774.09;5272253;28;20304;-81
2021/07/28 08:25:08;;;;;;;9.80;9.00;;;19.10;99.90;;;20.72;89.29;97781.03;5276147;28;20204;-81
2021/07/28 08:27:41;;;;;;;9.15;8.35;;;19.20;99.90;;;20.70;88.72;97781.88;5286324;28;20207;-81
2021/07/28 08:30:15;;;;;;;9.02;8.23;;;19.20;99.90;;;20.69;88.99;97790.53;5292787;28;20666;-81
2021/07/28 08:32:48;;;;;;;8.88;8.18;;;19.20;99.90;;;20.63;89.06;97785.25;5286688;28;20227;-81
2021/07/28 08:35:22;;;;;;;9.43;8.60;;;19.20;99.90;;;20.59;90.23;97788.63;5280664;28;20446;-81
2021/07/28 08:37:55;;;;;;;9.95;9.05;;;19.20;99.90;;;20.58;90.21;97802.47;5282494;28;20199;-81
2021/07/28 08:40:29;;;;;;;8.85;7.93;;;19.20;99.90;;;20.61;88.50;97796.47;5278426;28;20287;-81
2021/07/28 08:43:05;;;;;;;9.20;8.40;;;19.10;99.90;;;20.51;87.21;97804.91;5292487;27;20215;-80
2021/07/28 08:45:38;;;;;;;9.60;8.70;;;19.10;99.90;;;20.32;87.67;97796.81;5288775;28;20207;-81
2021/07/28 08:48:11;;;;;;;8.55;7.75;;;19.00;99.90;;;20.28;87.21;97796.72;5288005;28;20200;-81
2021/07/28 08:50:48;;;;;;;7.68;7.07;;;18.90;99.90;;;20.15;87.95;97791.31;5289208;27;20231;-81
2021/07/28 08:53:21;;;;;;;8.80;8.02;;;18.90;99.90;;;20.07;89.28;97785.09;5289704;27;20282;-81
2021/07/28 08:55:55;;;;;;;8.05;7.25;;;18.80;99.90;;;20.10;87.60;97787.75;5291134;28;20210;-81
2021/07/28 08:58:29;;;;;;;8.15;7.55;;;18.70;99.90;;;19.99;88.20;97794.47;5293793;27;20203;-81
2021/07/28 09:01:02;;;;;;;8.85;8.13;;;18.70;99.90;;;19.93;88.74;97783.97;5291487;28;20251;-83
2021/07/28 09:03:36;;;;;;;9.20;8.30;;;18.60;99.90;;;19.84;90.15;97797.66;5280665;28;20229;-82
2021/07/28 09:06:27;;;;;;;8.65;7.85;;;18.60;99.90;;;19.80;91.69;97799.31;5287254;28;20216;-81
2021/07/28 09:09:03;;;;;;;9.13;8.32;;;18.70;99.90;;;19.81;92.86;97795.00;5292844;28;20195;-81
2021/07/28 09:11:36;;;;;;;10.00;9.00;;;18.70;99.90;;;19.90;93.12;97799.47;5294215;28;20206;-81
2021/07/28 09:14:19;;;;;;;9.23;8.52;;;18.70;99.90;;;19.98;92.12;97798.78;5293534;28;20215;-80
2021/07/28 09:16:54;;;;;;;9.60;8.75;;;18.70;99.90;;;19.96;91.65;97816.03;5274255;28;20587;-83
2021/07/28 09:19:42;;;;;;;9.30;8.40;;;18.70;99.90;;;19.93;92.23;97800.41;5293712;28;20197;-80
2021/07/28 09:22:37;;;;;;;9.32;8.43;;;18.80;99.90;;;20.01;90.71;97788.47;5293688;28;20227;-81
2021/07/28 09:25:17;;;;;;;9.57;8.68;;;18.70;99.90;;;19.99;91.40;97795.34;5292637;28;20218;-81
2021/07/28 09:27:52;;;;;;;9.25;8.35;;;18.80;99.90;;;20.02;90.29;97799.72;5293258;28;20674;-81
2021/07/28 09:30:34;;;;;;;10.07;9.10;;;18.80;99.90;;;20.04;92.09;97798.03;5293163;28;20639;-81
2021/07/28 09:33:10;;;;;;;8.98;8.18;;;18.90;99.90;;;20.13;92.06;97802.50;5292653;28;20311;-81
2021/07/28 09:36:22;;;;;;;9.32;8.25;;;18.90;99.90;;;20.27;90.65;97805.38;5274602;28;20289;-80
2021/07/28 09:38:56;;;;;;;9.57;8.68;;;19.00;99.90;;;20.41;88.41;97804.75;5269912;28;20195;-81
2021/07/28 09:41:29;;;;;;;8.98;8.18;;;19.00;99.90;;;20.44;87.61;97809.13;5273332;28;20203;-80
2021/07/28 09:44:03;;;;;;;8.52;7.65;;;18.90;99.90;;;20.43;87.01;97807.34;5278491;28;20255;-81
2021/07/28 09:46:38;;;;;;;8.50;7.32;;;18.90;99.90;;;20.38;87.43;97809.91;5291861;28;20192;-81
2021/07/28 09:49:19;;;;;;;7.85;7.07;;;18.90;99.90;;;20.38;86.20;97812.50;5290489;28;20285;-80
2021/07/28 09:51:52;;;;;;;8.18;7.47;;;18.80;99.90;;;20.34;86.62;97815.88;5290969;27;20223;-81
2021/07/28 09:54:30;;;;;;;7.18;6.53;;;18.80;99.90;;;20.29;85.23;97811.44;5292004;28;20215;-81
2021/07/28 09:57:08;;;;;;;7.45;6.75;;;18.70;99.90;;;20.28;85.68;97810.56;5289518;28;20643;-81
2021/07/28 09:59:45;;;;;;;7.10;6.45;;;18.70;99.90;;;20.29;85.12;97814.94;5287186;28;20195;-82
2021/07/28 10:02:21;;;;;;;7.65;7.03;;;18.70;99.90;;;20.29;84.35;97811.44;5289899;27;20205;-81
2021/07/28 10:04:55;;;;;;;7.85;7.15;;;18.80;99.90;;;20.25;85.77;97813.09;5287171;28;20653;-81
2021/07/28 10:07:31;;;;;;;8.25;7.45;;;18.80;99.90;;;20.30;84.32;97805.41;5289896;28;20203;-81
2021/07/28 10:10:09;;;;;;;7.72;7.03;;;18.80;99.90;;;20.25;86.34;97803.59;5296426;27;20274;-81
2021/07/28 10:12:42;;;;;;;7.47;6.88;;;18.90;99.90;;;20.41;84.69;97801.28;5290588;28;20268;-81
2021/07/28 10:15:15;;;;;;;7.65;7.03;;;18.90;99.90;;;20.52;84.02;97797.16;5281819;28;20199;-81
2021/07/28 10:17:49;;;;;;;7.20;6.50;;;18.90;99.90;;;20.59;83.50;97787.75;5286217;28;20271;-81
2021/07/28 10:20:24;;;;;;;7.85;7.07;;;18.90;99.90;;;20.50;84.30;97785.00;5286501;28;20569;-80
2021/07/28 10:22:58;;;;;;;8.07;7.30;;;18.90;99.90;;;20.55;85.16;97786.84;5292120;28;20309;-79
2021/07/28 10:25:33;;;;;;;7.10;6.40;;;19.10;99.90;;;20.59;84.68;97792.97;5290600;28;20198;-80
2021/07/28 10:28:07;;;;;;;7.70;7.00;;;19.10;99.90;;;20.58;83.59;97789.50;5290550;28;20629;-80
2021/07/28 10:30:45;;;;;;;8.07;7.38;;;19.10;99.90;;;20.60;82.85;97790.41;5289306;28;20219;-80
2021/07/28 10:33:24;;;;;;;8.43;7.60;;;19.10;99.90;;;20.62;82.72;97796.47;5282657;28;20753;-79
2021/07/28 10:35:58;;;;;;;8.57;7.70;;;19.20;99.90;;;20.84;82.96;97783.84;5284261;28;20677;-80